Time;durP1;ratioP1;P1;durP2;ratioP2;P2;SDS_P1;SDS_P2;PMS_P1;PMS_P2;Temp;Humidity;BMP_temperature;BMP_pressure;BME280_temperature;BME280_humidity;BME280_pressure;Samples;Min_cycle;Max_cycle;Signal;HPM_P1;HPM_P2
2023/05/19 00:00:56;;;;;;;13.45;8.45;;;;;;;12.47;52.96;102523.13;5028679;28;20331;-92
2023/05/19 00:03:22;;;;;;;10.88;8.15;;;;;;;12.54;52.38;102529.16;5029113;28;20029;-93
2023/05/19 00:05:48;;;;;;;10.77;8.32;;;;;;;12.55;52.29;102523.84;5026299;28;20543;-93
2023/05/19 00:08:15;;;;;;;16.10;7.85;;;;;;;12.62;52.15;102528.09;5019970;28;20017;-93
2023/05/19 00:10:41;;;;;;;14.43;8.65;;;;;;;12.65;52.80;102530.69;5036423;28;20060;-93
2023/05/19 00:13:07;;;;;;;12.13;8.45;;;;;;;12.58;52.85;102514.91;5030266;28;20056;-93
2023/05/19 00:15:33;;;;;;;12.02;8.18;;;;;;;12.46;51.82;102526.69;5028299;28;20029;-93
2023/05/19 00:17:58;;;;;;;14.18;8.30;;;;;;;12.48;52.72;102523.06;5026411;28;20032;-92
2023/05/19 00:20:23;;;;;;;10.95;7.93;;;;;;;12.52;52.11;102522.09;5009976;28;20120;-93
2023/05/19 00:22:49;;;;;;;12.00;8.15;;;;;;;12.47;52.72;102528.44;5024863;28;20106;-93
2023/05/19 00:25:15;;;;;;;12.10;8.30;;;;;;;12.44;53.01;102518.75;5008761;28;20060;-93
2023/05/19 00:27:40;;;;;;;11.55;7.25;;;;;;;12.45;52.66;102514.31;5026029;28;20061;-92
2023/05/19 00:30:06;;;;;;;9.43;7.13;;;;;;;12.40;53.74;102517.09;5009627;28;20022;-92
2023/05/19 00:32:32;;;;;;;11.82;7.82;;;;;;;12.35;53.57;102510.09;5028300;28;20068;-93
2023/05/19 00:34:58;;;;;;;12.60;7.80;;;;;;;12.32;53.25;102512.84;5025359;28;20480;-92
2023/05/19 00:37:23;;;;;;;12.23;8.20;;;;;;;12.30;53.43;102506.66;5013898;28;20033;-93
2023/05/19 00:39:48;;;;;;;11.23;7.32;;;;;;;12.23;53.50;102497.97;5011793;28;20029;-91
2023/05/19 00:42:14;;;;;;;10.10;7.70;;;;;;;12.18;54.08;102499.84;5029356;28;20704;-93
2023/05/19 00:44:40;;;;;;;12.10;7.43;;;;;;;12.21;54.12;102511.25;5026357;28;20394;-93
2023/05/19 00:47:06;;;;;;;12.07;7.70;;;;;;;12.19;54.23;102504.25;5029010;28;20036;-92
2023/05/19 00:49:31;;;;;;;11.40;7.30;;;;;;;12.15;54.25;102497.25;5030077;28;20212;-92
2023/05/19 00:51:59;;;;;;;11.30;7.55;;;;;;;12.07;55.24;102493.88;5012906;28;20550;-93
2023/05/19 00:54:25;;;;;;;13.32;7.60;;;;;;;12.02;55.08;102485.16;5025917;28;20480;-92
2023/05/19 00:56:50;;;;;;;12.43;7.53;;;;;;;12.07;55.66;102504.47;5009412;28;20037;-91
2023/05/19 00:59:16;;;;;;;11.55;7.57;;;;;;;11.97;55.54;102499.34;5027639;28;20096;-92
2023/05/19 01:01:41;;;;;;;12.80;7.40;;;;;;;11.98;56.07;102509.09;5008666;28;20021;-93
2023/05/19 01:04:08;;;;;;;13.10;7.30;;;;;;;11.93;56.24;102504.75;5012007;28;20040;-93
2023/05/19 01:06:37;;;;;;;9.90;6.90;;;;;;;11.88;56.86;102503.97;5028188;28;20048;-93
2023/05/19 01:09:03;;;;;;;12.48;6.68;;;;;;;11.87;56.89;102508.41;5010086;28;20106;-91
2023/05/19 01:11:28;;;;;;;9.35;6.78;;;;;;;11.81;57.38;102508.50;5011115;28;20133;-93
2023/05/19 01:13:54;;;;;;;9.57;6.88;;;;;;;11.77;57.59;102500.63;5012612;28;20180;-92
2023/05/19 01:16:29;;;;;;;11.00;7.18;;;;;;;11.73;57.88;102500.66;5041167;28;20017;-92
2023/05/19 01:19:00;;;;;;;9.65;6.90;;;;;;;11.73;58.23;102500.66;5031012;28;20247;-92
2023/05/19 01:21:48;;;;;;;12.33;7.93;;;;;;;11.82;57.72;102504.97;5010207;28;20029;-92
2023/05/19 01:24:44;;;;;;;12.07;6.28;;;;;;;11.70;58.02;102500.75;5026752;28;20330;-92
2023/05/19 01:27:15;;;;;;;15.23;6.88;;;;;;;11.57;58.75;102509.81;5022520;28;20075;-93
2023/05/19 01:30:02;;;;;;;13.30;7.00;;;;;;;11.56;58.45;102513.34;5030087;28;20025;-92
2023/05/19 01:32:30;;;;;;;12.65;6.47;;;;;;;11.46;59.28;102496.72;5025010;28;20033;-94
2023/05/19 01:34:56;;;;;;;11.85;6.25;;;;;;;11.43;59.27;102496.81;5024863;28;20685;-93
2023/05/19 01:37:23;;;;;;;7.57;6.55;;;;;;;11.45;59.70;102507.38;5012211;28;20032;-93
2023/05/19 01:39:49;;;;;;;8.02;6.22;;;;;;;11.35;59.78;102498.69;5031213;28;20075;-93
2023/05/19 01:42:16;;;;;;;8.95;6.72;;;;;;;11.29;59.78;102490.00;5016862;28;20026;-92
2023/05/19 01:44:42;;;;;;;9.48;6.07;;;;;;;11.28;59.84;102498.81;5010761;28;20033;-93
2023/05/19 01:47:09;;;;;;;9.75;6.68;;;;;;;11.19;60.39;102497.19;5011692;28;20036;-93
2023/05/19 01:49:35;;;;;;;10.30;6.32;;;;;;;11.23;60.01;102494.47;5014446;28;20029;-92
2023/05/19 01:52:00;;;;;;;13.00;6.75;;;;;;;11.26;60.01;102495.34;5030948;28;20028;-93
2023/05/19 01:54:25;;;;;;;10.25;6.22;;;;;;;11.18;60.15;102493.66;5011725;28;20488;-92
2023/05/19 01:57:10;;;;;;;12.10;7.03;;;;;;;11.17;60.44;102499.00;5021669;28;20513;-93
2023/05/19 02:00:04;;;;;;;7.88;6.10;;;;;;;11.19;60.25;102495.44;5027851;28;20112;-93
2023/05/19 02:02:57;;;;;;;11.00;6.72;;;;;;;11.14;60.12;102478.72;5032268;28;20057;-93
2023/05/19 02:05:44;;;;;;;13.23;6.35;;;;;;;11.14;59.85;102481.38;5017786;28;20608;-95
2023/05/19 02:08:19;;;;;;;9.98;6.28;;;;;;;11.12;60.75;102493.78;5024469;28;20132;-93
2023/05/19 02:10:51;;;;;;;12.43;7.07;;;;;;;11.12;60.56;102495.56;5042094;28;20028;-93
2023/05/19 02:13:20;;;;;;;14.25;7.25;;;;;;;11.07;60.33;102492.97;5011054;28;20045;-92
2023/05/19 02:15:47;;;;;;;10.45;6.38;;;;;;;11.02;60.06;102483.38;5026859;28;20048;-93
2023/05/19 02:18:16;;;;;;;13.35;6.85;;;;;;;11.05;60.48;102484.22;5029753;28;20029;-93
2023/05/19 02:20:41;;;;;;;10.07;6.63;;;;;;;11.03;60.70;102488.63;5009898;28;20033;-93
2023/05/19 02:23:07;;;;;;;9.30;6.63;;;;;;;10.97;60.67;102478.16;5016681;28;20082;-94
2023/05/19 02:25:32;;;;;;;10.63;6.22;;;;;;;10.97;60.30;102480.78;5031194;28;20026;-92
2023/05/19 02:27:58;;;;;;;11.48;6.45;;;;;;;10.96;60.68;102484.34;5027970;28;20076;-92
2023/05/19 02:30:23;;;;;;;11.50;6.20;;;;;;;10.93;60.86;102476.44;5032949;28;20025;-94
2023/05/19 02:32:48;;;;;;;10.35;6.53;;;;;;;10.89;60.97;102472.97;5011899;28;20029;-91
2023/05/19 02:35:14;;;;;;;8.30;5.80;;;;;;;10.81;60.40;102477.50;5025711;28;20434;-92
2023/05/19 02:37:39;;;;;;;10.40;6.55;;;;;;;10.77;61.11;102470.53;5027083;28;20025;-92
2023/05/19 02:40:05;;;;;;;13.82;6.28;;;;;;;10.81;61.16;102477.50;5013881;28;20037;-92
2023/05/19 02:42:31;;;;;;;13.10;7.13;;;;;;;10.70;61.29;102467.06;5014379;28;20025;-93
2023/05/19 02:44:56;;;;;;;10.05;6.03;;;;;;;10.76;61.31;102462.59;5029410;28;20560;-92
2023/05/19 02:47:21;;;;;;;13.50;7.10;;;;;;;10.73;61.80;102466.16;5029753;28;20036;-92
2023/05/19 02:49:46;;;;;;;9.75;6.88;;;;;;;10.59;61.65;102460.22;5017574;28;20057;-93
2023/05/19 02:52:12;;;;;;;11.63;6.65;;;;;;;10.48;61.71;102447.13;5032087;28;20135;-93
2023/05/19 02:54:37;;;;;;;9.45;6.15;;;;;;;10.53;61.63;102455.84;5031013;28;20039;-92
2023/05/19 02:57:03;;;;;;;9.63;7.07;;;;;;;10.55;62.63;102475.25;5020423;28;20022;-92
2023/05/19 02:59:28;;;;;;;9.85;6.53;;;;;;;10.43;62.25;102455.09;5014221;28;20029;-92
2023/05/19 03:02:01;;;;;;;11.75;6.32;;;;;;;10.42;61.83;102455.16;5013717;28;20025;-93
2023/05/19 03:04:28;;;;;;;13.18;7.18;;;;;;;10.34;62.36;102460.53;5012558;28;20030;-92
2023/05/19 03:06:54;;;;;;;9.77;7.00;;;;;;;10.25;62.54;102442.13;5029408;28;20040;-94
2023/05/19 03:09:19;;;;;;;11.57;6.32;;;;;;;10.33;62.91;102455.25;5013962;28;20033;-92
2023/05/19 03:11:45;;;;;;;13.15;6.80;;;;;;;10.37;62.40;102462.25;5032746;28;20409;-92
2023/05/19 03:14:13;;;;;;;9.95;6.47;;;;;;;10.40;62.70;102475.44;5016855;28;20025;-91
2023/05/19 03:16:41;;;;;;;11.15;6.63;;;;;;;10.30;63.39;102453.53;5019252;28;20098;-92
2023/05/19 03:19:07;;;;;;;12.27;7.05;;;;;;;10.41;62.94;102474.56;5026718;28;20503;-91
2023/05/19 03:21:33;;;;;;;10.73;6.90;;;;;;;10.32;64.10;102469.38;5011899;28;20029;-92
2023/05/19 03:23:59;;;;;;;11.80;6.57;;;;;;;10.34;62.76;102462.28;5026947;28;20120;-92
2023/05/19 03:26:25;;;;;;;11.98;7.32;;;;;;;10.37;62.87;102472.84;5020258;28;20051;-93
2023/05/19 03:28:50;;;;;;;11.75;6.88;;;;;;;10.31;62.77;102457.06;5012751;28;20069;-93
2023/05/19 03:31:15;;;;;;;13.55;7.78;;;;;;;10.23;63.88;102463.28;5029686;28;20036;-91
2023/05/19 03:33:41;;;;;;;10.25;6.35;;;;;;;10.18;64.37;102473.03;5029147;28;20400;-92
2023/05/19 03:36:06;;;;;;;12.55;6.82;;;;;;;10.06;64.69;102465.25;5030702;28;20075;-92
2023/05/19 03:38:31;;;;;;;13.27;7.13;;;;;;;10.02;64.31;102466.16;5009882;28;20495;-92
2023/05/19 03:40:57;;;;;;;10.23;7.07;;;;;;;10.08;63.88;102473.19;5015449;28;20021;-92
2023/05/19 03:43:22;;;;;;;9.73;5.75;;;;;;;10.10;63.49;102477.53;5027305;28;20097;-92
2023/05/19 03:45:47;;;;;;;11.20;7.22;;;;;;;10.06;64.39;102467.88;5005348;28;20038;-92
2023/05/19 03:48:14;;;;;;;11.50;7.22;;;;;;;10.16;63.94;102492.44;5012546;28;20064;-93
2023/05/19 03:50:40;;;;;;;12.00;7.22;;;;;;;10.10;64.67;102476.66;5012715;28;20049;-91
2023/05/19 03:53:06;;;;;;;12.50;7.07;;;;;;;10.09;64.52;102478.44;5029125;28;20021;-92
2023/05/19 03:55:31;;;;;;;12.30;7.60;;;;;;;10.00;65.30;102472.38;5015315;28;20086;-92
2023/05/19 03:57:56;;;;;;;13.02;7.07;;;;;;;9.86;65.10;102470.78;5031581;28;20122;-92
2023/05/19 04:00:22;;;;;;;13.35;6.95;;;;;;;9.92;65.27;102493.59;5020492;28;20258;-91
2023/05/19 04:02:47;;;;;;;12.35;7.47;;;;;;;9.87;65.24;102482.22;5030409;28;20029;-92
2023/05/19 04:05:13;;;;;;;10.63;7.47;;;;;;;9.87;65.84;102487.50;5025062;28;20025;-91
2023/05/19 04:07:38;;;;;;;10.65;7.30;;;;;;;9.96;64.69;102496.19;5029798;28;20025;-92
2023/05/19 04:10:04;;;;;;;11.77;7.53;;;;;;;9.99;65.09;102490.00;5028688;28;20026;-93
2023/05/19 04:12:30;;;;;;;13.25;7.28;;;;;;;9.91;65.51;102479.50;5019383;28;20061;-92
2023/05/19 04:14:56;;;;;;;10.32;6.90;;;;;;;9.97;65.46;102490.00;5033275;28;20036;-91
2023/05/19 04:17:25;;;;;;;15.65;7.18;;;;;;;9.92;65.43;102483.91;5032410;28;20170;-91
2023/05/19 04:19:50;;;;;;;12.80;7.55;;;;;;;10.00;65.23;102496.16;5028146;28;20037;-92
2023/05/19 04:22:15;;;;;;;10.98;7.47;;;;;;;9.92;66.18;102473.34;5014433;28;20033;-92
2023/05/19 04:24:40;;;;;;;11.68;6.95;;;;;;;10.02;65.48;102476.75;5013576;28;20310;-92
2023/05/19 04:27:10;;;;;;;12.95;7.25;;;;;;;10.07;65.89;102484.63;5032309;28;20495;-92
2023/05/19 04:29:36;;;;;;;11.32;6.45;;;;;;;10.08;65.07;102481.97;5028971;28;20021;-92
2023/05/19 04:32:05;;;;;;;12.63;6.90;;;;;;;10.13;66.27;102482.78;5030622;28;20128;-92
2023/05/19 04:34:30;;;;;;;13.85;7.50;;;;;;;10.12;66.07;102472.25;5032963;28;20029;-93
2023/05/19 04:36:56;;;;;;;11.82;7.75;;;;;;;10.25;65.99;102489.72;5034155;28;20175;-92
2023/05/19 04:39:21;;;;;;;10.77;7.25;;;;;;;10.19;65.72;102476.56;5011751;28;20026;-93
2023/05/19 04:41:47;;;;;;;10.95;6.93;;;;;;;10.20;66.19;102483.59;5019296;28;20040;-92
2023/05/19 04:44:12;;;;;;;13.60;7.97;;;;;;;10.22;66.73;102472.13;5016688;28;20034;-92
2023/05/19 04:46:37;;;;;;;13.90;7.38;;;;;;;10.27;66.65;102481.78;5028349;28;20026;-93
2023/05/19 04:49:03;;;;;;;14.68;7.38;;;;;;;10.23;65.88;102476.50;5029480;28;20586;-92
2023/05/19 04:51:30;;;;;;;11.05;7.07;;;;;;;10.23;67.23;102481.78;5009027;28;20404;-91
2023/05/19 04:53:56;;;;;;;12.93;6.63;;;;;;;10.36;66.32;102492.25;5029758;28;20107;-93
2023/05/19 04:56:21;;;;;;;12.77;7.85;;;;;;;10.41;66.50;102491.28;5025740;28;20021;-92
2023/05/19 04:58:47;;;;;;;10.15;7.50;;;;;;;10.51;65.85;102499.97;5018913;28;20044;-93
2023/05/19 05:01:14;;;;;;;16.73;8.43;;;;;;;10.46;65.73;102478.00;5026662;28;20028;-92
2023/05/19 05:03:39;;;;;;;12.13;7.97;;;;;;;10.52;65.75;102477.03;5029203;28;20033;-92
2023/05/19 05:06:05;;;;;;;14.90;7.78;;;;;;;10.47;65.85;102477.09;5010731;28;20025;-91
2023/05/19 05:08:30;;;;;;;16.45;8.25;;;;;;;10.57;65.60;102486.66;5037875;28;20025;-92
2023/05/19 05:10:56;;;;;;;16.20;8.50;;;;;;;10.69;65.60;102483.84;5020560;28;20022;-92
2023/05/19 05:13:23;;;;;;;15.25;8.52;;;;;;;10.80;65.07;102480.16;5033514;28;20123;-93
2023/05/19 05:15:50;;;;;;;16.50;7.90;;;;;;;10.90;64.67;102481.78;5021245;28;20089;-92
2023/05/19 05:18:16;;;;;;;14.25;8.45;;;;;;;11.05;65.13;102492.16;5026765;28;20276;-92
2023/05/19 05:20:42;;;;;;;14.70;8.82;;;;;;;11.07;64.97;102500.06;5011048;28;20021;-92
2023/05/19 05:23:08;;;;;;;16.08;9.63;;;;;;;11.10;65.22;102492.94;5022522;28;20075;-92
2023/05/19 05:25:35;;;;;;;16.38;8.70;;;;;;;11.20;64.36;102491.03;5030112;28;20493;-91
2023/05/19 05:28:03;;;;;;;16.08;9.15;;;;;;;11.21;63.81;102483.03;5028102;28;20029;-92
2023/05/19 05:30:29;;;;;;;16.65;8.68;;;;;;;11.37;64.42;102494.25;5026649;28;20026;-93
2023/05/19 05:32:55;;;;;;;13.10;7.75;;;;;;;11.48;64.08;102499.38;5027913;28;20072;-93
2023/05/19 05:35:22;;;;;;;11.68;7.32;;;;;;;11.60;63.06;102507.09;5012835;28;20025;-92
2023/05/19 05:37:48;;;;;;;13.07;7.72;;;;;;;11.65;63.42;102505.22;5016617;28;20124;-92
2023/05/19 05:40:13;;;;;;;15.43;8.52;;;;;;;11.73;63.15;102497.16;5038030;28;20674;-92
2023/05/19 05:42:39;;;;;;;16.80;7.63;;;;;;;11.83;63.28;102503.19;5023786;28;20503;-92
2023/05/19 05:45:05;;;;;;;15.05;7.55;;;;;;;11.95;62.90;102506.47;5026376;28;20026;-91
2023/05/19 05:47:30;;;;;;;13.07;7.60;;;;;;;11.94;63.12;102504.75;5011953;28;20021;-92
2023/05/19 05:49:56;;;;;;;13.65;7.68;;;;;;;12.06;62.44;102508.03;5025531;28;20061;-92
2023/05/19 05:52:24;;;;;;;14.55;7.43;;;;;;;12.07;62.36;102488.56;5025935;28;20083;-92
2023/05/19 05:54:50;;;;;;;11.32;7.88;;;;;;;12.11;62.20;102490.28;5023956;28;20117;-92
2023/05/19 05:57:15;;;;;;;13.25;7.90;;;;;;;12.23;62.42;102496.19;5029061;28;20111;-93
2023/05/19 05:59:41;;;;;;;18.05;8.40;;;;;;;12.22;61.93;102473.25;5007590;28;20080;-92
2023/05/19 06:02:07;;;;;;;11.30;7.72;;;;;;;12.40;62.41;102501.16;5008151;28;20539;-92
2023/05/19 06:04:32;;;;;;;14.90;8.70;;;;;;;12.31;61.79;102487.19;5007266;28;20060;-92
2023/05/19 06:07:00;;;;;;;14.90;8.10;;;;;;;12.52;61.55;102508.84;5012051;28;20025;-93
2023/05/19 06:09:25;;;;;;;13.00;8.25;;;;;;;12.57;60.73;102495.47;5027788;28;20023;-92
2023/05/19 06:11:51;;;;;;;13.43;7.78;;;;;;;12.68;60.71;102487.28;5005136;28;20037;-94
2023/05/19 06:14:17;;;;;;;10.75;7.47;;;;;;;12.76;60.43;102502.13;5029377;28;20113;-93
2023/05/19 06:16:42;;;;;;;10.75;7.70;;;;;;;12.89;60.74;102515.13;5024963;28;20028;-92
2023/05/19 06:19:08;;;;;;;16.05;8.10;;;;;;;12.89;60.53;102515.13;5032005;28;20029;-93
2023/05/19 06:21:33;;;;;;;16.10;8.30;;;;;;;12.95;59.36;102510.53;5033816;28;20030;-91
2023/05/19 06:23:59;;;;;;;11.05;7.60;;;;;;;13.04;59.40;102525.38;5015001;28;20044;-93
2023/05/19 06:26:25;;;;;;;14.95;8.13;;;;;;;13.00;59.66;102498.03;5033904;28;20026;-92
2023/05/19 06:28:51;;;;;;;12.93;7.03;;;;;;;13.17;59.60;102512.69;5029212;28;20064;-91
2023/05/19 06:31:16;;;;;;;11.48;7.47;;;;;;;13.20;58.73;102510.84;5012813;28;20654;-91
2023/05/19 06:33:41;;;;;;;11.60;7.85;;;;;;;13.29;59.25;102512.44;5029657;28;20021;-92
2023/05/19 06:36:08;;;;;;;14.27;7.95;;;;;;;13.33;59.27;102506.09;5030502;28;20033;-92
2023/05/19 06:38:34;;;;;;;13.07;7.85;;;;;;;13.38;58.70;102517.53;5032705;28;20075;-92
2023/05/19 06:40:59;;;;;;;15.40;8.50;;;;;;;13.43;58.97;102510.31;5031218;28;20022;-92
2023/05/19 06:43:24;;;;;;;15.35;7.60;;;;;;;13.52;57.76;102512.72;5013090;28;20477;-91
2023/05/19 06:45:50;;;;;;;13.10;7.63;;;;;;;13.62;58.14;102499.19;5013874;28;20061;-91
2023/05/19 06:48:15;;;;;;;12.80;7.50;;;;;;;13.87;57.52;102504.72;5011047;28;20088;-90
2023/05/19 06:50:40;;;;;;;13.75;7.60;;;;;;;14.06;57.24;102499.75;5006011;28;20133;-91
2023/05/19 06:53:06;;;;;;;13.00;7.63;;;;;;;14.32;56.92;102502.56;5011011;28;20088;-92
2023/05/19 06:55:31;;;;;;;11.88;7.80;;;;;;;14.42;57.29;102498.69;5003233;28;20068;-91
2023/05/19 06:57:56;;;;;;;13.75;7.90;;;;;;;14.69;57.31;102493.50;5022917;28;20022;-91
2023/05/19 07:00:22;;;;;;;15.55;7.18;;;;;;;14.74;56.18;102489.78;5010853;28;20400;-90
2023/05/19 07:02:47;;;;;;;12.20;7.72;;;;;;;14.80;55.37;102502.88;5008975;28;20034;-91
2023/05/19 07:05:12;;;;;;;20.13;7.80;;;;;;;14.87;55.86;102503.56;5008933;28;20045;-91
2023/05/19 07:07:37;;;;;;;13.32;8.25;;;;;;;15.02;55.46;102499.56;5010969;28;20034;-92
2023/05/19 07:10:03;;;;;;;16.98;7.57;;;;;;;15.22;54.99;102506.88;5005164;28;20030;-90
2023/05/19 07:12:28;;;;;;;11.38;7.43;;;;;;;15.28;54.27;102493.34;5005417;28;20042;-91
2023/05/19 07:14:53;;;;;;;11.00;6.97;;;;;;;15.52;54.15;102507.63;5006153;28;20531;-91
2023/05/19 07:17:19;;;;;;;11.75;6.93;;;;;;;15.63;53.75;102491.28;5008796;28;20028;-91
2023/05/19 07:19:44;;;;;;;11.15;6.82;;;;;;;15.73;53.07;102508.75;5007087;28;20049;-90
2023/05/19 07:22:09;;;;;;;10.05;6.68;;;;;;;15.85;52.42;102516.28;5007912;28;20025;-90
2023/05/19 07:24:35;;;;;;;15.30;6.15;;;;;;;16.02;52.14;102505.91;5007035;28;20397;-90
2023/05/19 07:27:00;;;;;;;11.25;6.28;;;;;;;16.22;51.85;102512.28;4998578;28;20026;-90
2023/05/19 07:29:25;;;;;;;15.40;7.10;;;;;;;16.39;52.35;102503.66;5010558;28;20038;-90
2023/05/19 07:31:53;;;;;;;11.07;6.15;;;;;;;16.86;50.99;102500.97;5008985;28;20025;-90
2023/05/19 07:34:19;;;;;;;14.25;6.55;;;;;;;17.43;49.24;102503.03;5010533;28;20032;-90
2023/05/19 07:36:45;;;;;;;13.32;6.35;;;;;;;18.00;48.64;102500.59;5008377;28;20030;-88
2023/05/19 07:39:10;;;;;;;9.32;5.90;;;;;;;18.48;46.39;102497.50;5009692;28;20029;-89
2023/05/19 07:41:36;;;;;;;13.13;5.72;;;;;;;18.97;45.05;102500.50;5004119;28;20037;-88
2023/05/19 07:44:06;;;;;;;12.55;5.97;;;;;;;19.40;43.16;102508.22;5004989;28;20455;-89
2023/05/19 07:46:31;;;;;;;11.82;5.78;;;;;;;19.76;42.85;102501.00;5002918;28;20544;-89
2023/05/19 07:48:56;;;;;;;11.73;6.05;;;;;;;20.19;41.54;102495.16;5009347;28;20053;-89
2023/05/19 07:51:22;;;;;;;9.27;6.05;;;;;;;20.52;40.32;102500.56;5025303;28;20044;-89
2023/05/19 07:53:47;;;;;;;10.77;5.07;;;;;;;20.81;39.54;102485.47;5025050;28;20403;-89
2023/05/19 07:56:12;;;;;;;11.98;5.78;;;;;;;21.01;39.72;102497.75;5007431;28;20033;-90
2023/05/19 07:58:38;;;;;;;12.02;6.03;;;;;;;21.27;40.80;102497.13;5028089;28;20436;-89
2023/05/19 08:01:03;;;;;;;10.30;5.97;;;;;;;21.37;39.08;102492.94;5005818;28;20563;-89
2023/05/19 08:03:29;;;;;;;9.77;5.38;;;;;;;21.43;38.10;102482.78;5025289;28;20025;-89
2023/05/19 08:05:54;;;;;;;8.38;5.30;;;;;;;21.70;37.92;102481.13;5009754;28;20017;-89
2023/05/19 08:08:20;;;;;;;10.25;5.40;;;;;;;22.07;36.39;102490.47;5011438;28;20479;-89
2023/05/19 08:10:46;;;;;;;11.38;4.82;;;;;;;22.27;35.95;102478.47;5012786;28;20029;-90
2023/05/19 08:13:11;;;;;;;10.30;5.25;;;;;;;22.58;36.11;102479.22;5029041;28;20025;-90
2023/05/19 08:15:36;;;;;;;10.25;5.22;;;;;;;;;;5023619;28;20038;-89
2023/05/19 08:18:02;;;;;;;8.18;4.68;;;;;;;22.54;35.23;102486.63;5024403;28;20071;-90
2023/05/19 08:20:27;;;;;;;12.52;5.50;;;;;;;22.32;36.25;102487.13;5026581;28;20026;-90
2023/05/19 08:22:52;;;;;;;7.85;5.15;;;;;;;22.38;35.89;102477.78;5009724;28;20071;-90
2023/05/19 08:25:18;;;;;;;7.47;4.70;;;;;;;22.72;35.58;102460.31;5022528;28;20022;-89
2023/05/19 08:27:44;;;;;;;7.15;4.68;;;;;;;22.83;36.54;102473.94;5025650;28;20037;-90
2023/05/19 08:30:10;;;;;;;8.90;5.60;;;;;;;22.74;35.19;102471.84;5026840;28;20472;-90
2023/05/19 08:32:35;;;;;;;10.52;5.15;;;;;;;22.87;36.94;102471.91;5010535;28;20041;-89
2023/05/19 08:35:00;;;;;;;8.60;5.10;;;;;;;23.64;34.55;102459.50;5027000;28;20045;-89
2023/05/19 08:37:26;;;;;;;10.98;6.22;;;;;;;24.40;34.01;102459.50;5027506;28;20044;-89
2023/05/19 08:39:51;;;;;;;9.82;5.55;;;;;;;25.12;33.31;102464.09;5021060;28;20485;-90
2023/05/19 08:42:16;;;;;;;10.15;4.80;;;;;;;25.63;31.39;102451.06;5022654;28;20029;-90
2023/05/19 08:44:42;;;;;;;6.60;4.00;;;;;;;26.10;30.38;102451.03;5026427;28;20488;-90
2023/05/19 08:47:12;;;;;;;8.35;4.50;;;;;;;26.40;29.15;102450.41;5022865;28;20028;-89
2023/05/19 08:49:43;;;;;;;7.18;3.92;;;;;;;26.47;28.95;102442.63;5023465;28;20129;-90
2023/05/19 08:52:15;;;;;;;8.45;4.47;;;;;;;26.52;29.81;102438.53;5004476;28;20121;-90
2023/05/19 08:54:44;;;;;;;;;;;;;;;27.16;30.03;102443.16;5003431;28;20132;-89
2023/05/19 08:57:10;;;;;;;5.80;3.30;;;;;;;27.16;28.19;102433.16;5023005;28;19949;-89
2023/05/19 08:59:36;;;;;;;6.63;3.58;;;;;;;27.49;26.79;102435.81;5007571;28;20034;-89
2023/05/19 09:02:02;;;;;;;6.85;3.17;;;;;;;26.93;28.34;102440.53;5004392;28;20026;-89
2023/05/19 09:04:28;;;;;;;5.40;2.63;;;;;;;27.36;26.81;102426.00;5006957;28;20032;-90
2023/05/19 09:06:54;;;;;;;12.57;3.03;;;;;;;27.37;28.83;102430.47;5016441;28;20030;-90
2023/05/19 09:09:19;;;;;;;5.22;2.92;;;;;;;27.43;27.43;102427.22;5000006;28;20053;-90
2023/05/19 09:11:45;;;;;;;6.70;2.67;;;;;;;27.70;27.19;102431.25;5001190;28;20032;-90
2023/05/19 09:14:11;;;;;;;6.85;2.92;;;;;;;26.79;26.33;102426.41;5001635;28;20244;-90
2023/05/19 09:16:36;;;;;;;5.20;2.47;;;;;;;26.74;26.77;102412.34;5003217;28;20553;-90
2023/05/19 09:19:02;;;;;;;6.18;2.08;;;;;;;26.84;26.97;102425.00;5005721;28;20061;-89
2023/05/19 09:21:31;;;;;;;4.38;2.17;;;;;;;26.41;27.96;102412.28;5002748;28;20057;-90
2023/05/19 09:23:58;;;;;;;4.55;2.00;;;;;;;26.25;25.95;102408.25;5005323;28;20037;-90
2023/05/19 09:26:23;;;;;;;5.03;1.92;;;;;;;26.24;27.89;102401.97;5002653;28;20503;-90
2023/05/19 09:28:49;;;;;;;9.07;2.00;;;;;;;26.05;28.70;102408.03;5003743;28;20026;-90
2023/05/19 09:31:15;;;;;;;7.20;2.08;;;;;;;26.03;29.56;102407.28;5001762;28;20052;-89
2023/05/19 09:33:41;;;;;;;4.97;1.88;;;;;;;25.61;27.99;102408.84;5003923;28;20155;-90
2023/05/19 09:36:07;;;;;;;6.32;2.15;;;;;;;25.57;28.19;102415.50;5002408;28;20504;-90
2023/05/19 09:38:35;;;;;;;6.43;1.95;;;;;;;25.60;28.71;102409.81;5004984;28;20030;-89
2023/05/19 09:41:00;;;;;;;5.95;2.40;;;;;;;25.80;29.11;102402.88;5003956;28;20492;-91
2023/05/19 09:43:27;;;;;;;5.57;2.33;;;;;;;25.90;27.61;102395.72;5004732;28;20065;-90
2023/05/19 09:46:03;;;;;;;6.78;2.45;;;;;;;25.78;28.48;102399.41;5002961;28;20112;-89
2023/05/19 09:48:29;;;;;;;3.67;2.35;;;;;;;25.32;26.39;102394.88;5005483;28;20037;-91
2023/05/19 09:50:55;;;;;;;5.40;2.13;;;;;;;24.79;29.17;102405.25;5010478;28;20029;-89
2023/05/19 09:53:21;;;;;;;3.90;1.92;;;;;;;25.12;27.85;102413.53;5027604;28;20018;-89
2023/05/19 09:55:47;;;;;;;6.45;2.08;;;;;;;25.27;29.14;102411.47;5013829;28;20045;-89
2023/05/19 09:58:16;;;;;;;3.92;1.90;;;;;;;25.14;26.55;102411.59;5010489;28;20506;-89
2023/05/19 10:00:42;;;;;;;4.53;1.70;;;;;;;25.49;27.69;102401.69;5027817;28;20025;-89
2023/05/19 10:03:08;;;;;;;5.13;2.33;;;;;;;25.46;26.55;102408.22;5026890;28;20495;-90
2023/05/19 10:05:34;;;;;;;4.90;1.90;;;;;;;25.88;27.55;102400.38;5008715;28;20043;-88
2023/05/19 10:08:01;;;;;;;4.70;2.10;;;;;;;26.03;26.71;102401.88;5026450;28;20488;-89
2023/05/19 10:10:28;;;;;;;4.68;2.17;;;;;;;26.31;26.68;102407.75;5028122;28;20045;-89
2023/05/19 10:12:54;;;;;;;5.25;2.10;;;;;;;26.50;28.18;102407.13;5025179;28;20026;-89
2023/05/19 10:15:19;;;;;;;4.75;2.08;;;;;;;26.40;28.26;102396.16;5024479;28;20098;-89
2023/05/19 10:17:44;;;;;;;6.72;2.28;;;;;;;26.39;28.18;102391.69;5028390;28;20033;-89
2023/05/19 10:20:11;;;;;;;6.72;2.72;;;;;;;26.19;25.55;102406.91;5027820;28;20273;-91
2023/05/19 10:22:38;;;;;;;8.18;2.63;;;;;;;25.84;27.85;102407.06;5012159;28;20079;-90
2023/05/19 10:25:05;;;;;;;5.82;2.90;;;;;;;26.08;26.02;102402.34;5027713;28;20040;-89
2023/05/19 10:27:31;;;;;;;5.88;2.35;;;;;;;26.58;27.14;102388.34;5027658;28;20029;-89
2023/05/19 10:30:00;;;;;;;6.07;3.05;;;;;;;27.05;25.28;102384.34;5030444;28;20033;-90
2023/05/19 10:32:29;;;;;;;5.28;2.40;;;;;;;27.12;26.23;102395.56;5024634;28;20034;-90
2023/05/19 10:35:35;;;;;;;5.53;2.65;;;;;;;27.65;26.97;102388.16;5028862;28;20083;-89
2023/05/19 10:38:20;;;;;;;5.88;2.60;;;;;;;27.34;26.68;102391.84;5008087;28;20045;-90
2023/05/19 10:41:10;;;;;;;7.50;2.85;;;;;;;27.07;26.70;102386.91;5025243;28;20087;-90
2023/05/19 10:43:35;;;;;;;5.63;2.80;;;;;;;27.29;26.83;102373.22;5010288;28;21781;-89
2023/05/19 10:46:01;;;;;;;7.93;2.20;;;;;;;27.62;26.86;102365.84;5019410;28;20033;-89
2023/05/19 10:48:32;;;;;;;6.95;2.80;;;;;;;27.82;25.47;102375.81;5024479;28;20033;-90
2023/05/19 10:50:58;;;;;;;8.55;2.90;;;;;;;27.95;24.98;102379.16;5010270;28;20048;-90
2023/05/19 10:53:30;;;;;;;7.68;2.70;;;;;;;28.26;24.79;102367.34;5011109;28;20063;-89
2023/05/19 10:55:57;;;;;;;3.22;1.90;;;;;;;28.52;23.19;102375.88;5024529;28;20366;-89
2023/05/19 10:58:44;;;;;;;6.10;2.10;;;;;;;28.52;24.40;102362.28;5022947;28;20032;-90
2023/05/19 11:01:17;;;;;;;3.80;2.13;;;;;;;28.10;24.13;102373.34;5025068;28;20091;-90
2023/05/19 11:03:46;;;;;;;5.47;1.85;;;;;;;27.66;23.20;102370.88;5009524;28;20228;-90
2023/05/19 11:06:31;;;;;;;3.25;1.70;;;;;;;27.94;23.14;102377.44;5023619;28;20033;-90
2023/05/19 11:08:57;;;;;;;4.88;1.80;;;;;;;28.08;22.63;102369.91;5023417;28;20384;-89
2023/05/19 11:11:22;;;;;;;4.28;1.80;;;;;;;27.61;24.81;102377.72;5009791;28;20024;-89
2023/05/19 11:13:55;;;;;;;6.07;2.40;;;;;;;27.71;25.36;102368.63;5026239;28;20057;-89
2023/05/19 11:16:28;;;;;;;7.05;2.28;;;;;;;28.07;23.87;102365.44;5018245;28;20029;-89
2023/05/19 11:18:55;;;;;;;4.60;2.13;;;;;;;28.29;25.00;102364.34;5005825;28;20308;-89
2023/05/19 11:21:20;;;;;;;6.00;2.30;;;;;;;27.75;24.13;102357.50;5012465;28;20641;-89